Time;durP1;ratioP1;P1;durP2;ratioP2;P2;SDS_P1;SDS_P2;PMS_P1;PMS_P2;Temp;Humidity;BMP_temperature;BMP_pressure;BME280_temperature;BME280_humidity;BME280_pressure;Samples;Min_cycle;Max_cycle;Signal;HPM_P1;HPM_P2
2022/04/04 00:00:09;;;;;;;10.20;8.27;;;3.10;99.90;;;;;;5050754;28;20221;-52
2022/04/04 00:02:37;;;;;;;9.87;8.97;;;3.00;99.90;;;;;;5049323;28;20271;-52
2022/04/04 00:05:06;;;;;;;9.93;8.93;;;2.90;99.90;;;;;;5051711;28;20984;-52
2022/04/04 00:07:35;;;;;;;9.50;8.53;;;2.80;99.90;;;;;;5051409;28;20222;-52
2022/04/04 00:10:04;;;;;;;9.40;8.50;;;2.80;99.90;;;;;;5051871;28;20268;-51
2022/04/04 00:12:33;;;;;;;8.90;8.10;;;2.80;99.90;;;;;;5050562;28;20693;-51
2022/04/04 00:15:01;;;;;;;9.87;8.53;;;2.70;99.90;;;;;;5051016;28;20209;-52
2022/04/04 00:17:29;;;;;;;10.63;9.63;;;2.70;99.90;;;;;;5050838;28;20253;-52
2022/04/04 00:19:57;;;;;;;9.53;8.67;;;2.60;99.90;;;;;;5051791;28;20302;-51
2022/04/04 00:22:25;;;;;;;9.53;8.63;;;2.60;99.90;;;;;;5050879;28;20209;-52
2022/04/04 00:24:55;;;;;;;10.27;9.20;;;2.60;99.90;;;;;;5050227;28;20218;-51
2022/04/04 00:27:23;;;;;;;10.17;8.60;;;2.50;99.90;;;;;;5049813;28;20702;-51
2022/04/04 00:29:51;;;;;;;9.77;8.83;;;2.40;99.90;;;;;;5050758;28;20281;-52
2022/04/04 00:32:20;;;;;;;10.90;9.80;;;2.40;99.90;;;;;;5050035;28;20862;-51
2022/04/04 00:34:48;;;;;;;10.30;8.77;;;2.40;99.90;;;;;;5049717;28;20213;-52
2022/04/04 00:37:16;;;;;;;11.07;8.90;;;2.30;99.90;;;;;;5051486;28;20235;-52
2022/04/04 00:39:44;;;;;;;10.60;9.47;;;2.30;99.90;;;;;;5051140;28;20293;-51
2022/04/04 00:42:17;;;;;;;10.90;8.70;;;2.20;99.90;;;;;;5050652;28;20263;-52
2022/04/04 00:44:46;;;;;;;10.33;9.20;;;2.20;99.90;;;;;;5051237;28;20268;-52
2022/04/04 00:47:14;;;;;;;12.23;9.57;;;2.20;99.90;;;;;;5050987;28;20223;-52
2022/04/04 00:49:42;;;;;;;10.37;9.37;;;2.10;99.90;;;;;;5050902;28;20279;-52
2022/04/04 00:52:10;;;;;;;12.13;10.07;;;2.10;99.90;;;;;;5049970;28;20341;-51
2022/04/04 00:54:38;;;;;;;10.40;9.40;;;2.10;99.90;;;;;;5051050;28;20258;-52
2022/04/04 00:57:06;;;;;;;11.07;9.50;;;2.10;99.90;;;;;;5051006;28;20284;-51
2022/04/04 00:59:36;;;;;;;11.83;9.83;;;2.10;99.90;;;;;;5050507;28;20236;-51
2022/04/04 01:02:05;;;;;;;11.40;9.37;;;2.10;99.90;;;;;;5050619;28;20281;-52
2022/04/04 01:04:34;;;;;;;14.80;10.20;;;2.10;99.90;;;;;;5050269;28;20206;-51
2022/04/04 01:07:03;;;;;;;12.60;10.10;;;2.10;99.90;;;;;;5050852;28;20288;-52
2022/04/04 01:09:32;;;;;;;16.83;11.20;;;2.10;99.90;;;;;;5050746;28;20275;-52
2022/04/04 01:12:05;;;;;;;14.93;11.23;;;2.10;99.90;;;;;;5050674;28;20213;-51
2022/04/04 01:14:34;;;;;;;13.67;10.07;;;2.10;99.90;;;;;;5050730;28;20204;-52
2022/04/04 01:17:05;;;;;;;12.30;10.90;;;2.20;99.90;;;;;;5040442;28;20230;-52
2022/04/04 01:19:34;;;;;;;11.80;10.60;;;2.20;99.90;;;;;;5030831;28;20708;-52
2022/04/04 01:22:05;;;;;;;12.50;10.17;;;2.30;99.90;;;;;;5030224;28;20225;-51
2022/04/04 01:24:34;;;;;;;12.73;10.73;;;2.40;99.90;;;;;;5031598;28;20209;-51
2022/04/04 01:27:03;;;;;;;13.03;10.93;;;2.40;99.90;;;;;;5034535;28;20637;-51
2022/04/04 01:29:31;;;;;;;11.77;10.57;;;2.40;99.90;;;;;;5039837;28;20652;-51
2022/04/04 01:31:59;;;;;;;12.47;11.10;;;2.40;99.90;;;;;;5053831;28;20651;-52
2022/04/04 01:34:29;;;;;;;12.87;11.53;;;2.40;99.90;;;;;;5053133;28;20262;-51
2022/04/04 01:36:57;;;;;;;13.60;11.47;;;2.30;99.90;;;;;;5054263;28;20213;-52
2022/04/04 01:39:25;;;;;;;14.60;12.17;;;2.30;99.90;;;;;;5054425;28;20283;-52
2022/04/04 01:41:55;;;;;;;13.03;11.73;;;2.20;99.90;;;;;;5054141;28;20213;-52
2022/04/04 01:44:23;;;;;;;15.80;12.60;;;2.20;99.90;;;;;;5053668;28;20286;-52
2022/04/04 01:46:51;;;;;;;13.80;11.77;;;2.10;99.90;;;;;;5054675;28;20204;-51
2022/04/04 01:49:19;;;;;;;14.67;12.30;;;2.10;99.90;;;;;;5053918;28;20261;-51
2022/04/04 01:51:47;;;;;;;14.30;12.77;;;2.10;99.90;;;;;;5054015;28;20211;-52
2022/04/04 01:54:16;;;;;;;13.97;12.33;;;2.00;99.90;;;;;;5053770;28;20213;-51
2022/04/04 01:56:44;;;;;;;13.80;12.40;;;2.00;99.90;;;;;;5054182;28;20263;-51
2022/04/04 01:59:13;;;;;;;13.70;12.00;;;2.00;99.90;;;;;;5053824;28;20190;-52
2022/04/04 02:01:42;;;;;;;15.17;13.00;;;1.90;99.90;;;;;;5053570;28;20216;-52
2022/04/04 02:04:11;;;;;;;14.03;12.53;;;1.90;99.90;;;;;;5054040;28;20208;-52
2022/04/04 02:06:40;;;;;;;15.53;12.63;;;1.90;99.90;;;;;;5053703;28;20633;-52
2022/04/04 02:09:08;;;;;;;14.57;12.60;;;1.80;99.90;;;;;;5053263;28;20280;-52
2022/04/04 02:11:37;;;;;;;14.83;12.60;;;1.80;99.90;;;;;;5053956;28;20578;-52
2022/04/04 02:14:05;;;;;;;14.90;12.57;;;1.80;99.90;;;;;;5053379;28;20658;-51
2022/04/04 02:16:34;;;;;;;14.27;12.77;;;1.70;99.90;;;;;;5053448;28;20826;-51
2022/04/04 02:19:03;;;;;;;14.43;12.93;;;1.70;99.90;;;;;;5053662;28;20226;-52
2022/04/04 02:21:31;;;;;;;14.20;12.63;;;1.70;99.90;;;;;;5053759;28;20213;-52
2022/04/04 02:23:59;;;;;;;14.07;12.27;;;1.60;99.90;;;;;;5052732;28;20204;-52
2022/04/04 02:26:27;;;;;;;15.00;12.97;;;1.60;99.90;;;;;;5053847;28;20232;-52
2022/04/04 02:28:55;;;;;;;17.83;13.03;;;1.50;99.90;;;;;;5052746;28;20255;-52
2022/04/04 02:31:23;;;;;;;14.50;13.10;;;1.40;99.90;;;;;;5053392;28;20244;-52
2022/04/04 02:33:53;;;;;;;14.53;13.03;;;1.50;99.90;;;;;;5051216;28;20298;-52
2022/04/04 02:36:22;;;;;;;15.93;13.53;;;1.50;99.90;;;;;;5052319;28;20233;-52
2022/04/04 02:38:50;;;;;;;15.10;12.90;;;1.50;99.90;;;;;;5047406;28;20202;-52
2022/04/04 02:41:19;;;;;;;14.07;12.57;;;1.50;99.90;;;;;;5033422;28;20275;-51
2022/04/04 02:43:47;;;;;;;14.17;12.67;;;1.50;99.90;;;;;;5032471;28;20216;-52
2022/04/04 02:46:15;;;;;;;15.87;13.30;;;1.50;99.90;;;;;;5033108;28;20251;-52
2022/04/04 02:48:43;;;;;;;14.73;12.83;;;1.40;99.90;;;;;;5033300;28;20241;-52
2022/04/04 02:51:13;;;;;;;15.93;12.70;;;1.50;99.90;;;;;;5032969;28;20232;-52
2022/04/04 02:53:41;;;;;;;14.30;12.90;;;1.50;99.90;;;;;;5032685;28;20212;-52
2022/04/04 02:58:54;;;;;;;15.10;13.33;;;1.50;99.90;;;;;;5034599;28;20207;-52
2022/04/04 03:01:23;;;;;;;16.53;14.07;;;1.50;99.90;;;;;;5052952;28;20278;-52
2022/04/04 03:03:51;;;;;;;15.73;14.03;;;1.50;99.90;;;;;;5052018;28;20678;-51
2022/04/04 03:06:21;;;;;;;16.70;14.63;;;1.50;99.90;;;;;;5052901;28;20253;-52
2022/04/04 03:08:49;;;;;;;17.83;14.00;;;1.50;99.90;;;;;;5052202;28;20306;-52
2022/04/04 03:11:18;;;;;;;19.13;14.80;;;1.50;99.90;;;;;;5052886;28;20585;-52
2022/04/04 03:13:47;;;;;;;15.60;13.70;;;1.50;99.90;;;;;;5052161;28;20212;-51
2022/04/04 03:16:16;;;;;;;17.83;14.90;;;1.50;99.90;;;;;;5052630;28;20211;-51
2022/04/04 03:18:44;;;;;;;19.30;15.27;;;1.40;99.90;;;;;;5052623;28;20634;-51
2022/04/04 03:21:12;;;;;;;18.60;16.23;;;1.40;99.90;;;;;;5051882;28;20297;-51
2022/04/04 03:23:42;;;;;;;19.97;16.30;;;1.40;99.90;;;;;;5052279;28;20214;-51
2022/04/04 03:26:11;;;;;;;18.57;16.57;;;1.40;99.90;;;;;;5052265;28;20203;-52
2022/04/04 03:28:39;;;;;;;19.20;16.77;;;1.40;99.90;;;;;;5051637;28;20872;-51
2022/04/04 03:31:08;;;;;;;18.37;16.37;;;1.40;99.90;;;;;;5051606;28;20279;-52
2022/04/04 03:33:37;;;;;;;18.83;16.83;;;1.50;99.90;;;;;;5050156;28;20229;-52
2022/04/04 03:36:06;;;;;;;17.73;15.87;;;1.50;99.90;;;;;;5051913;28;20220;-52
2022/04/04 03:38:35;;;;;;;19.17;16.37;;;1.60;99.90;;;;;;5052165;28;20208;-51
2022/04/04 03:41:05;;;;;;;21.77;17.87;;;1.60;99.90;;;;;;5052311;28;20236;-51
2022/04/04 03:43:33;;;;;;;19.53;17.30;;;1.60;99.90;;;;;;5051500;28;20249;-52
2022/04/04 03:46:01;;;;;;;20.27;17.10;;;1.50;99.90;;;;;;5051878;28;20269;-52
2022/04/04 03:48:30;;;;;;;19.67;17.57;;;1.40;99.90;;;;;;5051348;28;20734;-52
2022/04/04 03:50:58;;;;;;;20.93;17.50;;;1.40;99.90;;;;;;5051935;28;20273;-52
2022/04/04 03:53:26;;;;;;;20.33;18.23;;;1.30;99.90;;;;;;5051495;28;20215;-52
2022/04/04 03:55:54;;;;;;;22.47;17.90;;;1.30;99.90;;;;;;5051727;28;20750;-52
2022/04/04 03:58:24;;;;;;;21.63;18.10;;;1.30;99.90;;;;;;5051532;28;20210;-51
2022/04/04 04:00:53;;;;;;;25.83;19.90;;;1.20;99.90;;;;;;5051368;28;20221;-52
2022/04/04 04:03:21;;;;;;;21.40;19.17;;;1.20;99.90;;;;;;5051309;28;20212;-52
2022/04/04 04:06:10;;;;;;;23.60;20.97;;;1.10;99.90;;;;;;5051527;28;20273;-52
2022/04/04 04:08:39;;;;;;;24.67;21.97;;;1.10;99.90;;;;;;5051763;28;20263;-52
2022/04/04 04:11:08;;;;;;;27.20;21.40;;;1.00;99.90;;;;;;5051441;28;20732;-52
2022/04/04 04:13:38;;;;;;;24.10;20.77;;;0.90;99.90;;;;;;5051055;28;20877;-52
2022/04/04 04:16:09;;;;;;;28.23;21.57;;;1.00;99.90;;;;;;5051054;28;20248;-51
2022/04/04 04:18:37;;;;;;;27.67;21.80;;;1.00;99.90;;;;;;5051422;28;20203;-52
2022/04/04 04:21:06;;;;;;;26.43;21.27;;;1.00;99.90;;;;;;5039886;28;20226;-52
2022/04/04 04:23:42;;;;;;;25.73;22.00;;;0.90;99.90;;;;;;5031358;28;20221;-52
2022/04/04 04:26:13;;;;;;;33.67;22.43;;;0.90;99.90;;;;;;5031606;28;20251;-52
2022/04/04 04:28:44;;;;;;;30.23;21.87;;;0.90;99.90;;;;;;5031183;28;20207;-52
2022/04/04 04:31:12;;;;;;;25.10;20.57;;;0.80;99.90;;;;;;5031102;28;20311;-52
2022/04/04 04:33:41;;;;;;;25.10;21.70;;;0.80;99.90;;;;;;5029100;28;20208;-52
2022/04/04 04:36:09;;;;;;;26.90;22.10;;;0.80;99.90;;;;;;5042561;28;20285;-52
2022/04/04 04:38:37;;;;;;;29.37;22.80;;;0.80;99.90;;;;;;5050987;28;20202;-52
2022/04/04 04:41:05;;;;;;;30.17;23.23;;;0.70;99.90;;;;;;5051343;28;20272;-52
2022/04/04 04:43:34;;;;;;;26.63;21.40;;;0.80;99.90;;;;;;5049933;28;20210;-52
2022/04/04 04:46:03;;;;;;;27.50;22.57;;;0.70;99.90;;;;;;5050418;28;20213;-52
2022/04/04 04:48:31;;;;;;;29.93;24.40;;;0.80;99.90;;;;;;5051206;28;20256;-52
2022/04/04 04:51:00;;;;;;;28.13;22.97;;;0.70;99.90;;;;;;5050600;28;20730;-52
2022/04/04 04:53:28;;;;;;;30.87;24.33;;;0.70;99.90;;;;;;5050517;28;20203;-52
2022/04/04 04:55:56;;;;;;;28.13;24.63;;;0.70;99.90;;;;;;5050964;28;20213;-52
2022/04/04 04:58:24;;;;;;;29.60;24.63;;;0.60;99.90;;;;;;5050868;28;20215;-52
2022/04/04 05:00:52;;;;;;;31.53;26.13;;;0.60;99.90;;;;;;5049986;28;20224;-51
2022/04/04 05:03:27;;;;;;;31.73;23.67;;;0.60;99.90;;;;;;5050588;28;20203;-52
2022/04/04 05:05:56;;;;;;;31.27;25.47;;;0.60;99.90;;;;;;5050005;28;20843;-51
2022/04/04 05:08:24;;;;;;;32.63;25.43;;;0.70;99.90;;;;;;5050509;28;20213;-52
2022/04/04 05:10:52;;;;;;;28.50;23.03;;;0.60;99.90;;;;;;5050410;28;20858;-51
2022/04/04 05:13:21;;;;;;;29.73;24.03;;;0.70;99.90;;;;;;5050077;28;20204;-51
2022/04/04 05:15:50;;;;;;;28.73;23.53;;;0.70;99.90;;;;;;5050958;28;20667;-51
2022/04/04 05:18:18;;;;;;;30.03;24.23;;;0.70;99.90;;;;;;5050573;28;20239;-51
2022/04/04 05:20:48;;;;;;;29.00;24.03;;;0.70;99.90;;;;;;5050580;28;20251;-51
2022/04/04 05:23:17;;;;;;;31.50;23.37;;;0.70;99.90;;;;;;5050053;28;20561;-51
2022/04/04 05:25:45;;;;;;;29.43;24.73;;;0.70;99.90;;;;;;5050871;28;20218;-51
2022/04/04 05:28:13;;;;;;;30.07;23.43;;;0.80;99.90;;;;;;5050810;28;20218;-52
2022/04/04 05:30:42;;;;;;;33.67;25.20;;;0.80;99.90;;;;;;5050449;28;20281;-51
2022/04/04 05:33:10;;;;;;;29.80;25.90;;;0.80;99.90;;;;;;5050559;28;20204;-51
2022/04/04 05:35:38;;;;;;;31.57;26.07;;;0.90;99.90;;;;;;5050596;28;20235;-52
2022/04/04 05:38:08;;;;;;;30.13;23.90;;;0.90;99.90;;;;;;5050788;28;20213;-51
2022/04/04 05:40:37;;;;;;;33.03;25.17;;;1.00;99.90;;;;;;5050746;28;20283;-52
2022/04/04 05:43:05;;;;;;;30.97;24.43;;;1.00;99.90;;;;;;5050425;28;20208;-51
2022/04/04 05:45:35;;;;;;;31.10;25.20;;;1.00;99.90;;;;;;5050871;28;20212;-51
2022/04/04 05:48:07;;;;;;;30.90;23.57;;;1.10;99.90;;;;;;5051037;28;20579;-51
2022/04/04 05:50:35;;;;;;;31.27;24.13;;;1.10;99.90;;;;;;5043519;28;20240;-50
2022/04/04 05:53:03;;;;;;;28.33;23.40;;;1.10;99.90;;;;;;5030203;28;20634;-51
2022/04/04 05:55:33;;;;;;;27.10;23.40;;;1.10;99.90;;;;;;5030065;28;20297;-51
2022/04/04 05:58:01;;;;;;;27.43;22.83;;;1.20;99.90;;;;;;5030818;28;20310;-51
2022/04/04 06:00:29;;;;;;;30.63;23.53;;;1.30;99.90;;;;;;5044486;28;20227;-52
2022/04/04 06:02:57;;;;;;;26.57;23.27;;;1.30;99.90;;;;;;5050169;28;20611;-52
2022/04/04 06:05:26;;;;;;;26.73;22.47;;;1.30;99.90;;;;;;5050288;28;20208;-51
2022/04/04 06:07:54;;;;;;;28.60;22.60;;;1.30;99.90;;;;;;5050843;28;20204;-52
2022/04/04 06:10:23;;;;;;;26.67;22.00;;;1.40;99.90;;;;;;5030490;28;20258;-52
2022/04/04 06:12:52;;;;;;;28.90;23.43;;;1.40;99.90;;;;;;5032721;28;20739;-52
2022/04/04 06:15:20;;;;;;;25.03;22.27;;;1.40;99.90;;;;;;5034181;28;20208;-51
2022/04/04 06:17:49;;;;;;;27.23;20.97;;;1.50;99.90;;;;;;5034527;28;20208;-51
2022/04/04 06:20:17;;;;;;;22.90;20.23;;;1.50;99.90;;;;;;5038427;28;20224;-51
2022/04/04 06:22:46;;;;;;;24.13;19.93;;;1.70;99.90;;;;;;5053769;28;20631;-51
2022/04/04 06:25:14;;;;;;;23.77;21.17;;;1.70;99.90;;;;;;5054062;28;20216;-52
2022/04/04 06:27:44;;;;;;;25.30;21.10;;;1.80;99.90;;;;;;5053802;28;20208;-50
2022/04/04 06:30:15;;;;;;;23.73;21.20;;;2.00;99.90;;;;;;5052910;28;20283;-52
2022/04/04 06:32:44;;;;;;;22.80;20.40;;;2.10;99.90;;;;;;5052996;28;20590;-51
2022/04/04 06:35:13;;;;;;;24.03;20.87;;;2.30;99.90;;;;;;5052128;28;20235;-51
2022/04/04 06:37:41;;;;;;;22.73;19.60;;;2.40;99.90;;;;;;5053343;28;20266;-52
2022/04/04 06:40:12;;;;;;;22.43;19.53;;;2.50;99.90;;;;;;5053476;28;20718;-52
2022/04/04 06:42:42;;;;;;;22.90;19.03;;;2.60;99.90;;;;;;5053268;28;20262;-51
2022/04/04 06:45:12;;;;;;;22.13;19.10;;;2.80;99.90;;;;;;5053251;28;20206;-51
2022/04/04 06:47:41;;;;;;;20.53;18.33;;;2.70;99.90;;;;;;5053392;28;20207;-51
2022/04/04 06:50:11;;;;;;;20.63;18.50;;;2.70;99.90;;;;;;5052337;28;20290;-51
2022/04/04 06:52:40;;;;;;;20.73;18.57;;;2.70;99.90;;;;;;5052836;28;20206;-51
2022/04/04 06:55:28;;;;;;;20.97;18.57;;;2.90;99.90;;;;;;5053134;28;20212;-50
2022/04/04 06:57:56;;;;;;;20.60;18.13;;;3.10;99.90;;;;;;5053007;28;20206;-51
2022/04/04 07:00:25;;;;;;;19.97;17.87;;;3.40;99.90;;;;;;5052406;28;20226;-51
2022/04/04 07:02:55;;;;;;;20.60;18.00;;;3.50;99.90;;;;;;5052775;28;20206;-51
2022/04/04 07:05:24;;;;;;;20.23;17.77;;;3.50;99.90;;;;;;5052898;28;20211;-51
2022/04/04 07:07:52;;;;;;;19.47;17.40;;;3.50;99.90;;;;;;5053201;28;20350;-51
2022/04/04 07:10:21;;;;;;;19.63;17.47;;;3.50;99.90;;;;;;5052344;28;20278;-50
2022/04/04 07:12:50;;;;;;;20.73;17.00;;;3.50;99.90;;;;;;5052138;28;20290;-51
2022/04/04 07:15:18;;;;;;;19.97;16.57;;;3.60;99.90;;;;;;5052846;28;20215;-51
2022/04/04 07:17:46;;;;;;;19.40;17.23;;;3.80;99.90;;;;;;5052705;28;20619;-51
2022/04/04 07:20:16;;;;;;;17.43;15.53;;;3.80;99.90;;;;;;5052378;28;20226;-51
2022/04/04 07:22:44;;;;;;;18.50;16.40;;;4.20;99.90;;;;;;5051380;28;20256;-51
2022/04/04 07:25:14;;;;;;;16.93;15.13;;;4.50;99.90;;;;;;5052694;28;20212;-51
2022/04/04 07:27:45;;;;;;;16.77;15.07;;;4.70;99.90;;;;;;5052308;28;20670;-51
2022/04/04 07:30:16;;;;;;;16.83;15.07;;;5.00;99.90;;;;;;5052553;28;20299;-51
2022/04/04 07:32:46;;;;;;;16.90;15.20;;;5.20;99.90;;;;;;5051879;28;20263;-51
2022/04/04 07:35:17;;;;;;;16.77;14.90;;;5.30;99.90;;;;;;5050555;28;20213;-51
2022/04/04 07:37:47;;;;;;;14.97;13.40;;;5.30;99.90;;;;;;5045046;28;20279;-51
2022/04/04 07:40:18;;;;;;;15.53;13.93;;;5.40;99.90;;;;;;5041600;28;20269;-51
2022/04/04 07:42:47;;;;;;;15.33;13.83;;;5.50;99.90;;;;;;5050751;28;20187;-52
2022/04/04 07:45:17;;;;;;;14.87;13.40;;;5.50;99.90;;;;;;5039527;28;20734;-52
2022/04/04 07:47:47;;;;;;;15.33;13.67;;;5.60;99.90;;;;;;5031952;28;20237;-52
2022/04/04 07:50:17;;;;;;;14.70;13.20;;;5.80;99.90;;;;;;5036371;28;20225;-51
2022/04/04 07:52:45;;;;;;;14.43;12.70;;;6.00;99.90;;;;;;5048407;28;20225;-52
2022/04/04 07:55:13;;;;;;;14.57;13.07;;;6.10;99.90;;;;;;5051662;28;20204;-49
2022/04/04 07:57:42;;;;;;;13.03;11.50;;;6.00;99.90;;;;;;5051569;28;20268;-48
2022/04/04 08:00:14;;;;;;;13.50;12.10;;;6.20;99.90;;;;;;5052225;28;20228;-48
2022/04/04 08:02:43;;;;;;;11.90;10.70;;;6.40;99.90;;;;;;5051245;28;20205;-49
2022/04/04 08:05:11;;;;;;;12.67;11.07;;;6.20;99.90;;;;;;5052267;28;20278;-49
2022/04/04 08:07:44;;;;;;;12.67;11.23;;;6.30;99.90;;;;;;5051769;28;20266;-49
2022/04/04 08:10:13;;;;;;;14.23;11.57;;;6.50;99.90;;;;;;5051430;28;20225;-51
2022/04/04 08:12:41;;;;;;;12.60;11.37;;;6.70;99.90;;;;;;5050948;28;20263;-49
2022/04/04 08:15:10;;;;;;;12.67;11.33;;;6.70;99.90;;;;;;5051319;28;20194;-49
2022/04/04 08:17:38;;;;;;;13.07;11.20;;;6.90;99.90;;;;;;5051179;28;20214;-52
2022/04/04 08:20:09;;;;;;;12.43;10.80;;;7.10;99.90;;;;;;5051282;28;20267;-52
2022/04/04 08:22:44;;;;;;;11.70;10.53;;;7.20;99.90;;;;;;5051446;28;20268;-51
2022/04/04 08:25:13;;;;;;;11.90;10.70;;;7.30;99.90;;;;;;5051504;28;20542;-51
2022/04/04 08:27:43;;;;;;;11.40;10.30;;;7.20;99.90;;;;;;5050987;28;20244;-51
2022/04/04 08:30:13;;;;;;;11.43;10.23;;;7.20;99.90;;;;;;5051456;28;20225;-52
2022/04/04 08:32:42;;;;;;;11.73;10.63;;;7.40;99.90;;;;;;5050606;28;20228;-51
2022/04/04 08:35:13;;;;;;;11.80;10.60;;;7.40;99.90;;;;;;5050640;28;20334;-51
2022/04/04 08:37:46;;;;;;;11.47;10.23;;;7.50;99.90;;;;;;5051491;28;20208;-51
2022/04/04 08:40:18;;;;;;;15.60;12.53;;;7.50;99.90;;;;;;5051232;28;20232;-51
2022/04/04 08:42:47;;;;;;;10.10;8.80;;;7.40;99.90;;;;;;5050899;28;20232;-51
2022/04/04 08:45:15;;;;;;;9.87;8.83;;;7.40;99.90;;;;;;5050728;28;20666;-52
2022/04/04 08:47:43;;;;;;;10.60;8.35;;;7.30;99.90;;;;;;5050850;28;20435;-52
2022/04/04 08:50:12;;;;;;;10.70;8.03;;;7.40;99.90;;;;;;5040758;28;20233;-51
2022/04/04 08:52:43;;;;;;;10.33;9.30;;;7.30;99.90;;;;;;5030236;28;20225;-51
2022/04/04 08:55:13;;;;;;;7.00;5.93;;;7.30;99.90;;;;;;5039147;28;20302;-51
2022/04/04 08:57:41;;;;;;;8.27;5.87;;;7.50;99.90;;;;;;5030799;28;20245;-52
2022/04/04 09:00:11;;;;;;;9.87;5.97;;;7.70;99.90;;;;;;5042669;28;20736;-51
2022/04/04 09:02:57;;;;;;;6.80;6.10;;;7.80;99.90;;;;;;5049797;28;20211;-51
2022/04/04 09:05:26;;;;;;;7.47;6.30;;;7.80;99.90;;;;;;5050644;28;20194;-51
2022/04/04 09:08:04;;;;;;;6.70;6.10;;;7.90;99.90;;;;;;5050614;28;20207;-51
2022/04/04 09:10:35;;;;;;;6.07;5.47;;;7.90;99.90;;;;;;5030769;28;20236;-51
2022/04/04 09:13:10;;;;;;;6.10;5.60;;;7.80;99.90;;;;;;5030140;28;20230;-52
2022/04/04 09:16:01;;;;;;;8.27;6.03;;;7.90;99.90;;;;;;5030963;28;20200;-51
2022/04/04 09:18:50;;;;;;;6.67;6.03;;;7.80;99.90;;;;;;5030462;28;20220;-51
2022/04/04 09:21:38;;;;;;;5.47;4.97;;;7.70;99.90;;;;;;5036785;28;20268;-51
2022/04/04 09:24:11;;;;;;;6.27;5.67;;;8.00;99.90;;;;;;5050181;28;20267;-51
2022/04/04 09:26:41;;;;;;;7.13;5.83;;;7.90;99.90;;;;;;5050521;28;20631;-51
2022/04/04 09:29:16;;;;;;;6.10;5.50;;;8.10;99.90;;;;;;5050125;28;20678;-51
2022/04/04 09:31:54;;;;;;;6.23;5.63;;;8.20;99.90;;;;;;5049425;28;20603;-51
2022/04/04 09:34:22;;;;;;;6.70;5.67;;;8.40;99.90;;;;;;5050044;28;20248;-51
2022/04/04 09:36:51;;;;;;;7.57;6.07;;;8.60;99.90;;;;;;5032876;28;20214;-51
2022/04/04 09:39:21;;;;;;;7.77;6.17;;;8.50;99.90;;;;;;5039537;28;20209;-52
2022/04/04 09:41:50;;;;;;;8.93;6.03;;;8.30;99.90;;;;;;5049976;28;20209;-51
2022/04/04 09:44:25;;;;;;;7.97;6.00;;;8.30;99.90;;;;;;5050513;28;20215;-52
2022/04/04 09:46:54;;;;;;;6.20;5.60;;;8.30;99.90;;;;;;5053505;28;20208;-52
2022/04/04 09:49:22;;;;;;;7.37;5.97;;;8.00;99.90;;;;;;5053939;28;20212;-51
2022/04/04 09:51:52;;;;;;;7.23;5.57;;;7.70;99.90;;;;;;5053253;28;20253;-51
2022/04/04 09:54:23;;;;;;;6.87;5.90;;;7.70;99.90;;;;;;5053429;28;20213;-50
2022/04/04 09:56:57;;;;;;;6.77;6.07;;;7.60;99.90;;;;;;5054636;28;20236;-57
2022/04/04 09:59:31;;;;;;;6.40;5.77;;;7.40;99.90;;;;;;5047981;28;20311;-50
2022/04/04 10:01:59;;;;;;;11.03;6.43;;;7.30;99.90;;;;;;5053975;28;20207;-51
2022/04/04 10:04:28;;;;;;;10.40;6.83;;;7.30;99.90;;;;;;5054366;28;20214;-51
2022/04/04 10:06:57;;;;;;;8.47;6.37;;;7.10;99.90;;;;;;5053803;28;20266;-51
2022/04/04 10:09:27;;;;;;;7.43;6.60;;;7.40;99.90;;;;;;5054047;28;20235;-51
2022/04/04 10:11:56;;;;;;;8.33;6.43;;;7.20;99.90;;;;;;5039736;28;20217;-50
2022/04/04 10:14:25;;;;;;;8.23;6.90;;;7.40;99.90;;;;;;5043002;28;20212;-51
2022/04/04 10:16:53;;;;;;;8.17;6.50;;;7.70;99.90;;;;;;5053406;28;20623;-50
2022/04/04 10:19:24;;;;;;;7.97;6.63;;;7.70;99.90;;;;;;5053281;28;20251;-50
2022/04/04 10:21:53;;;;;;;7.47;6.77;;;7.90;99.90;;;;;;5051440;28;20213;-51
2022/04/04 10:24:22;;;;;;;7.90;6.97;;;7.90;99.90;;;;;;5053694;28;20554;-51
2022/04/04 10:26:52;;;;;;;8.73;7.23;;;7.90;99.90;;;;;;5052969;28;20614;-50
2022/04/04 10:29:22;;;;;;;8.93;7.10;;;8.10;99.90;;;;;;5053745;28;20212;-51
2022/04/04 10:31:51;;;;;;;7.73;6.97;;;8.10;99.90;;;;;;5052222;28;20217;-50
2022/04/04 10:34:22;;;;;;;8.50;7.37;;;8.00;99.90;;;;;;5052761;28;20735;-51
2022/04/04 10:37:01;;;;;;;7.67;6.90;;;8.00;99.90;;;;;;5052719;28;20275;-51
2022/04/04 10:39:40;;;;;;;8.00;7.20;;;8.10;99.90;;;;;;5051648;28;20316;-51
2022/04/04 10:42:26;;;;;;;8.70;7.27;;;8.00;99.90;;;;;;5052767;28;20212;-51
2022/04/04 10:45:08;;;;;;;7.87;7.17;;;8.10;99.90;;;;;;5052737;28;20674;-51
2022/04/04 10:47:39;;;;;;;9.60;7.77;;;8.20;99.90;;;;;;5053098;28;20202;-51
2022/04/04 10:50:22;;;;;;;10.10;7.80;;;8.20;99.90;;;;;;5052396;28;20229;-51
2022/04/04 10:52:51;;;;;;;7.77;6.90;;;8.30;99.90;;;;;;5051802;28;20225;-51
2022/04/04 10:55:44;;;;;;;7.60;6.80;;;8.30;99.90;;;;;;5052522;28;20342;-51
2022/04/04 10:58:20;;;;;;;8.40;7.47;;;8.20;99.90;;;;;;5048372;28;20195;-51
2022/04/04 11:00:57;;;;;;;9.00;7.67;;;8.20;99.90;;;;;;5050011;28;20255;-51
2022/04/04 11:03:34;;;;;;;7.93;7.23;;;8.20;99.90;;;;;;5051890;28;20247;-51
2022/04/04 11:09:12;;;;;;;8.60;7.43;;;8.10;99.90;;;;;;5051973;28;20669;-51
2022/04/04 11:11:42;;;;;;;8.43;7.57;;;7.90;99.90;;;;;;5052707;28;20201;-51
2022/04/04 11:14:11;;;;;;;9.10;7.33;;;7.90;99.90;;;;;;5051875;28;20236;-51
2022/04/04 11:17:23;;;;;;;7.97;7.17;;;8.00;99.90;;;;;;5052913;28;20205;-50
2022/04/04 11:19:54;;;;;;;8.23;7.27;;;8.00;99.90;;;;;;4990152;28;20232;-51
2022/04/04 11:22:23;;;;;;;9.43;7.30;;;8.10;99.90;;;;;;5043951;28;20217;-51
2022/04/04 11:24:53;;;;;;;8.43;6.97;;;8.00;99.90;;;;;;5052091;28;20213;-51
2022/04/04 11:27:22;;;;;;;9.17;7.67;;;8.10;99.90;;;;;;5052035;28;20246;-51
2022/04/04 11:29:51;;;;;;;9.23;6.97;;;8.20;99.90;;;;;;5051509;28;20742;-51
2022/04/04 11:32:28;;;;;;;12.37;7.30;;;8.30;99.90;;;;;;5051561;28;20220;-51
2022/04/04 11:34:59;;;;;;;8.47;7.60;;;8.00;99.90;;;;;;5044965;28;20224;-51
2022/04/04 11:37:29;;;;;;;8.67;7.10;;;8.00;99.90;;;;;;5030946;28;20218;-51
2022/04/04 11:40:06;;;;;;;11.60;7.77;;;7.80;99.90;;;;;;5031240;28;20222;-51
2022/04/04 11:42:40;;;;;;;9.07;7.70;;;7.70;99.90;;;;;;5031527;28;20209;-51
2022/04/04 11:45:10;;;;;;;8.87;7.97;;;7.60;99.90;;;;;;5031402;28;20202;-51
2022/04/04 11:47:41;;;;;;;10.30;7.30;;;7.80;99.90;;;;;;5031406;28;20210;-51
2022/04/04 11:50:09;;;;;;;9.33;7.73;;;8.00;99.90;;;;;;5030715;28;20283;-51
2022/04/04 11:52:56;;;;;;;9.97;8.07;;;8.00;99.90;;;;;;5030884;28;20344;-51
2022/04/04 11:55:27;;;;;;;8.27;7.30;;;8.00;99.90;;;;;;5031125;28;20206;-51
2022/04/04 11:57:58;;;;;;;9.80;6.83;;;8.20;99.90;;;;;;5038551;28;20202;-51
2022/04/04 12:00:30;;;;;;;9.27;7.87;;;8.30;99.90;;;;;;5050561;28;20274;-51
2022/04/04 12:03:09;;;;;;;8.33;7.40;;;8.10;99.90;;;;;;5050685;28;20689;-51
2022/04/04 12:05:38;;;;;;;8.83;8.03;;;8.00;99.90;;;;;;5050432;28;20672;-51
2022/04/04 12:08:07;;;;;;;9.03;7.77;;;8.00;99.90;;;;;;5051176;28;20339;-51
2022/04/04 12:10:37;;;;;;;8.57;7.67;;;8.00;99.90;;;;;;5050670;28;20233;-51
2022/04/04 12:13:06;;;;;;;9.03;8.10;;;8.10;99.90;;;;;;5050338;28;20762;-51
2022/04/04 12:15:37;;;;;;;9.57;8.57;;;8.20;99.90;;;;;;5050806;28;20209;-51
2022/04/04 12:18:07;;;;;;;10.80;7.77;;;8.20;99.90;;;;;;5051819;28;20280;-51
2022/04/04 12:20:39;;;;;;;9.10;7.70;;;8.10;99.90;;;;;;5050041;28;20921;-51
2022/04/04 12:25:56;;;;;;;9.20;7.60;;;8.10;99.90;;;;;;5051347;28;20212;-52
2022/04/04 12:28:26;;;;;;;10.17;7.53;;;8.00;99.90;;;;;;5050012;28;20323;-51
2022/04/04 12:30:56;;;;;;;10.97;8.00;;;7.90;99.90;;;;;;5050903;28;20264;-51
2022/04/04 12:33:33;;;;;;;13.50;8.87;;;7.70;99.90;;;;;;5049465;28;20216;-51
2022/04/04 12:36:01;;;;;;;11.90;8.63;;;7.70;99.90;;;;;;5032896;28;20209;-52
2022/04/04 12:38:32;;;;;;;10.33;8.30;;;7.80;99.90;;;;;;5028906;28;20275;-51
2022/04/04 12:41:10;;;;;;;11.07;8.50;;;7.80;99.90;;;;;;5033409;28;20230;-51
2022/04/04 12:43:39;;;;;;;8.77;7.87;;;7.70;99.90;;;;;;5050176;28;20251;-51
2022/04/04 12:46:23;;;;;;;9.33;8.43;;;7.50;99.90;;;;;;5050662;28;20213;-51
2022/04/04 12:49:12;;;;;;;10.33;9.00;;;7.40;99.90;;;;;;5047268;28;20205;-52
2022/04/04 12:51:41;;;;;;;13.07;9.17;;;7.40;99.90;;;;;;5029777;28;20205;-51
2022/04/04 12:54:09;;;;;;;10.57;9.10;;;7.30;99.90;;;;;;5029832;28;20292;-51
2022/04/04 12:56:50;;;;;;;14.00;9.27;;;7.20;99.90;;;;;;5030646;28;20263;-51
2022/04/04 12:59:19;;;;;;;11.97;9.13;;;7.10;99.90;;;;;;5039917;28;20204;-51
2022/04/04 13:02:05;;;;;;;10.97;9.80;;;7.00;99.90;;;;;;5040334;28;20259;-51
2022/04/04 13:04:34;;;;;;;12.07;10.00;;;6.60;99.90;;;;;;5049248;28;20235;-51
2022/04/04 13:07:16;;;;;;;12.23;10.30;;;6.70;99.90;;;;;;5050182;28;20196;-51